Time;durP1;ratioP1;P1;durP2;ratioP2;P2;SDS_P1;SDS_P2;PMS_P1;PMS_P2;Temp;Humidity;BMP_temperature;BMP_pressure;BME280_temperature;BME280_humidity;BME280_pressure;Samples;Min_cycle;Max_cycle;Signal;HPM_P1;HPM_P2
2022/04/25 00:02:12;;;;;;;;;;;;;;;;;;5072611;28;19980;-84
2022/04/25 00:04:37;;;;;;;;;;;;;;;;;;5072204;28;19920;-83
2022/04/25 00:07:02;;;;;;;;;;;;;;;;;;5072430;28;20411;-83
2022/04/25 00:09:27;;;;;;;;;;;;;;;;;;5072737;28;19909;-83
2022/04/25 00:11:52;;;;;;;;;;;;;;;;;;5072449;28;19909;-84
2022/04/25 00:14:17;;;;;;;;;;;;;;;;;;5072613;28;19954;-84
2022/04/25 00:16:42;;;;;;;;;;;;;;;;;;5072365;28;19977;-84
2022/04/25 00:19:08;;;;;;;;;;;;;;;;;;5071627;28;20391;-84
2022/04/25 00:21:33;;;;;;;;;;;;;;;;;;5073260;28;19934;-83
2022/04/25 00:23:58;;;;;;;;;;;;;;;;;;5072362;28;19942;-84
2022/04/25 00:26:23;;;;;;;;;;;;;;;;;;5072348;28;19957;-84
2022/04/25 00:28:49;;;;;;;;;;;;;;;;;;5071932;28;19958;-84
2022/04/25 00:31:14;;;;;;;;;;;;;;;;;;5072054;28;19909;-83
2022/04/25 00:33:39;;;;;;;;;;;;;;;;;;5072229;28;19912;-83
2022/04/25 00:36:04;;;;;;;;;;;;;;;;;;5072124;28;20261;-84
2022/04/25 00:38:29;;;;;;;;;;;;;;;;;;5072116;28;19909;-84
2022/04/25 00:40:54;;;;;;;;;;;;;;;;;;5071933;28;19919;-84
2022/04/25 00:43:19;;;;;;;;;;;;;;;;;;5073169;28;19909;-83
2022/04/25 00:45:44;;;;;;;;;;;;;;;;;;5072125;28;20348;-83
2022/04/25 00:48:09;;;;;;;;;;;;;;;;;;5071845;28;20364;-84
2022/04/25 00:50:36;;;;;;;;;;;;;;;;;;5071961;28;19909;-83
2022/04/25 00:53:03;;;;;;;;;;;;;;;;;;5072087;28;19915;-83
2022/04/25 00:55:28;;;;;;;;;;;;;;;;;;5073164;28;19908;-83
2022/04/25 00:57:56;;;;;;;;;;;;;;;;;;5073156;28;19908;-83
2022/04/25 01:00:21;;;;;;;;;;;;;;;;;;5071714;28;19978;-84
2022/04/25 01:02:46;;;;;;;;;;;;;;;;;;5071814;28;19913;-84
2022/04/25 01:05:11;;;;;;;;;;;;;;;;;;5071857;28;19916;-84
2022/04/25 01:07:37;;;;;;;;;;;;;;;;;;5071727;28;19908;-83
2022/04/25 01:10:02;;;;;;;;;;;;;;;;;;5071749;28;19909;-83
2022/04/25 01:12:27;;;;;;;;;;;;;;;;;;5071584;28;19915;-83
2022/04/25 01:14:52;;;;;;;;;;;;;;;;;;5071646;28;19909;-84
2022/04/25 01:17:17;;;;;;;;;;;;;;;;;;5072819;28;20334;-84
2022/04/25 01:19:42;;;;;;;;;;;;;;;;;;5071859;28;19909;-84
2022/04/25 01:22:08;;;;;;;;;;;;;;;;;;5072908;28;19909;-84
2022/04/25 01:27:17;;;;;;;;;;;;;;;;;;5072833;28;20000;-84
2022/04/25 01:29:42;;;;;;;;;;;;;;;;;;5071331;28;19948;-83
2022/04/25 01:32:07;;;;;;;;;;;;;;;;;;5074090;28;19954;-83
2022/04/25 01:34:33;;;;;;;;;;;;;;;;;;5075190;28;20003;-83
2022/04/25 01:36:58;;;;;;;;;;;;;;;;;;5075308;28;19916;-83
2022/04/25 01:39:23;;;;;;;;;;;;;;;;;;5075294;28;20332;-83
2022/04/25 01:41:48;;;;;;;;;;;;;;;;;;5076751;28;19999;-84
2022/04/25 01:44:13;;;;;;;;;;;;;;;;;;5075326;28;19912;-84
2022/04/25 01:46:39;;;;;;;;;;;;;;;;;;5076424;28;19912;-83
2022/04/25 01:49:04;;;;;;;;;;;;;;;;;;5075369;28;19908;-84
2022/04/25 01:51:29;;;;;;;;;;;;;;;;;;5075189;28;19958;-84
2022/04/25 01:53:54;;;;;;;;;;;;;;;;;;5075249;28;19917;-84
2022/04/25 01:56:20;;;;;;;;;;;;;;;;;;5075227;28;20383;-83
2022/04/25 01:58:45;;;;;;;;;;;;;;;;;;5074968;28;19962;-83
2022/04/25 02:01:10;;;;;;;;;;;;;;;;;;5074870;28;19909;-83
2022/04/25 02:03:35;;;;;;;;;;;;;;;;;;5074755;28;20314;-83
2022/04/25 02:06:00;;;;;;;;;;;;;;;;;;5074994;28;20382;-84
2022/04/25 02:08:26;;;;;;;;;;;;;;;;;;5074668;28;19909;-83
2022/04/25 02:13:34;;;;;;;;;;;;;;;;;;5075765;28;19959;-83
2022/04/25 02:15:59;;;;;;;;;;;;;;;;;;5074547;28;19909;-83
2022/04/25 02:18:25;;;;;;;;;;;;;;;;;;5074423;28;20368;-83
2022/04/25 02:20:50;;;;;;;;;;;;;;;;;;5074382;28;19940;-83
2022/04/25 02:23:16;;;;;;;;;;;;;;;;;;5070281;28;19963;-83
2022/04/25 02:25:41;;;;;;;;;;;;;;;;;;5054671;28;19948;-83
2022/04/25 02:28:07;;;;;;;;;;;;;;;;;;5054355;28;19948;-83
2022/04/25 02:30:32;;;;;;;;;;;;;;;;;;5054393;28;19999;-83
2022/04/25 02:32:57;;;;;;;;;;;;;;;;;;5054201;28;19909;-84
2022/04/25 02:35:22;;;;;;;;;;;;;;;;;;5054305;28;19909;-83
2022/04/25 02:37:47;;;;;;;;;;;;;;;;;;5054120;28;19915;-83
2022/04/25 02:40:12;;;;;;;;;;;;;;;;;;5054320;28;20267;-83
2022/04/25 02:42:38;;;;;;;;;;;;;;;;;;5053028;28;19908;-83
2022/04/25 02:45:03;;;;;;;;;;;;;;;;;;5053929;28;20257;-83
2022/04/25 02:47:28;;;;;;;;;;;;;;;;;;5053804;28;19916;-84
2022/04/25 02:49:53;;;;;;;;;;;;;;;;;;5054017;28;19913;-83
2022/04/25 02:52:18;;;;;;;;;;;;;;;;;;5053714;28;19921;-83
2022/04/25 02:54:44;;;;;;;;;;;;;;;;;;5053539;28;19974;-83
2022/04/25 02:57:09;;;;;;;;;;;;;;;;;;5055075;28;20336;-83
2022/04/25 02:59:34;;;;;;;;;;;;;;;;;;5055317;28;19915;-83
2022/04/25 03:01:59;;;;;;;;;;;;;;;;;;5053709;28;20272;-83
2022/04/25 03:04:24;;;;;;;;;;;;;;;;;;5053794;28;19912;-83
2022/04/25 03:06:49;;;;;;;;;;;;;;;;;;5053611;28;19909;-83
2022/04/25 03:09:14;;;;;;;;;;;;;;;;;;5055052;28;19913;-84
2022/04/25 03:11:39;;;;;;;;;;;;;;;;;;5053881;28;19916;-84
2022/04/25 03:14:04;;;;;;;;;;;;;;;;;;5053699;28;19908;-83
2022/04/25 03:16:30;;;;;;;;;;;;;;;;;;5053368;28;19917;-83
2022/04/25 03:18:55;;;;;;;;;;;;;;;;;;5053344;28;19920;-83
2022/04/25 03:21:20;;;;;;;;;;;;;;;;;;5053528;28;19909;-83
2022/04/25 03:23:45;;;;;;;;;;;;;;;;;;5053579;28;19939;-83
2022/04/25 03:26:10;;;;;;;;;;;;;;;;;;5053337;28;19913;-83
2022/04/25 03:28:35;;;;;;;;;;;;;;;;;;5053236;28;19913;-83
2022/04/25 03:31:00;;;;;;;;;;;;;;;;;;5054688;28;19909;-84
2022/04/25 03:33:31;;;;;;;;;;;;;;;;;;5053149;28;19909;-83
2022/04/25 03:35:56;;;;;;;;;;;;;;;;;;5053078;28;19916;-83
2022/04/25 03:38:21;;;;;;;;;;;;;;;;;;5052937;28;19909;-83
2022/04/25 03:40:46;;;;;;;;;;;;;;;;;;5054200;28;19986;-83
2022/04/25 03:43:15;;;;;;;;;;;;;;;;;;5054398;28;19913;-83
2022/04/25 03:45:41;;;;;;;;;;;;;;;;;;5053179;28;19943;-83
2022/04/25 03:48:06;;;;;;;;;;;;;;;;;;5052773;28;19920;-83
2022/04/25 03:50:31;;;;;;;;;;;;;;;;;;5052890;28;19916;-83
2022/04/25 03:52:56;;;;;;;;;;;;;;;;;;5052957;28;20019;-83
2022/04/25 03:58:06;;;;;;;;;;;;;;;;;;5054056;28;19932;-83
2022/04/25 04:00:31;;;;;;;;;;;;;;;;;;5052708;28;20268;-83
2022/04/25 04:02:58;;;;;;;;;;;;;;;;;;5052797;28;19955;-83
2022/04/25 04:05:24;;;;;;;;;;;;;;;;;;5052553;28;20269;-83
2022/04/25 04:07:49;;;;;;;;;;;;;;;;;;5052833;28;19912;-83
2022/04/25 04:10:15;;;;;;;;;;;;;;;;;;5052651;28;20341;-83
2022/04/25 04:12:40;;;;;;;;;;;;;;;;;;5061651;28;19970;-83
2022/04/25 04:15:05;;;;;;;;;;;;;;;;;;5069125;28;20007;-83
2022/04/25 04:17:30;;;;;;;;;;;;;;;;;;5053034;28;19971;-83
2022/04/25 04:19:55;;;;;;;;;;;;;;;;;;5052839;28;20069;-83
2022/04/25 04:22:20;;;;;;;;;;;;;;;;;;5053306;28;19962;-83
2022/04/25 04:24:45;;;;;;;;;;;;;;;;;;5052202;28;19923;-83
2022/04/25 04:27:14;;;;;;;;;;;;;;;;;;5052316;28;20093;-83
2022/04/25 04:29:40;;;;;;;;;;;;;;;;;;5052595;28;19915;-83
2022/04/25 04:32:08;;;;;;;;;;;;;;;;;;5052017;28;20310;-83
2022/04/25 04:34:33;;;;;;;;;;;;;;;;;;5052337;28;19909;-83
2022/04/25 04:36:59;;;;;;;;;;;;;;;;;;5052154;28;20004;-83
2022/04/25 04:39:24;;;;;;;;;;;;;;;;;;5052319;28;19920;-83
2022/04/25 04:41:49;;;;;;;;;;;;;;;;;;5052174;28;19909;-83
2022/04/25 04:44:14;;;;;;;;;;;;;;;;;;5052330;28;20380;-83
2022/04/25 04:46:39;;;;;;;;;;;;;;;;;;5051995;28;19948;-83
2022/04/25 04:49:04;;;;;;;;;;;;;;;;;;5051851;28;20371;-83
2022/04/25 04:51:29;;;;;;;;;;;;;;;;;;5053303;28;19920;-83
2022/04/25 04:53:54;;;;;;;;;;;;;;;;;;5051863;28;19909;-83
2022/04/25 04:56:19;;;;;;;;;;;;;;;;;;5051824;28;19908;-83
2022/04/25 04:58:45;;;;;;;;;;;;;;;;;;5051822;28;19920;-83
2022/04/25 05:01:10;;;;;;;;;;;;;;;;;;5051785;28;20365;-83
2022/04/25 05:03:36;;;;;;;;;;;;;;;;;;5051657;28;19920;-83
2022/04/25 05:06:01;;;;;;;;;;;;;;;;;;5052522;28;20371;-83
2022/04/25 05:08:26;;;;;;;;;;;;;;;;;;5052897;28;19912;-83
2022/04/25 05:10:53;;;;;;;;;;;;;;;;;;5051834;28;19916;-83
2022/04/25 05:13:19;;;;;;;;;;;;;;;;;;5051416;28;19936;-83
2022/04/25 05:15:44;;;;;;;;;;;;;;;;;;5051379;28;19920;-83
2022/04/25 05:18:09;;;;;;;;;;;;;;;;;;5051559;28;19909;-83
2022/04/25 05:20:34;;;;;;;;;;;;;;;;;;5051602;28;20387;-83
2022/04/25 05:23:01;;;;;;;;;;;;;;;;;;5052876;28;19909;-83
2022/04/25 05:25:26;;;;;;;;;;;;;;;;;;5052398;28;19938;-83
2022/04/25 05:27:51;;;;;;;;;;;;;;;;;;5051428;28;19909;-83
2022/04/25 05:30:16;;;;;;;;;;;;;;;;;;5051338;28;19909;-83
2022/04/25 05:32:41;;;;;;;;;;;;;;;;;;5051459;28;20070;-84
2022/04/25 05:35:06;;;;;;;;;;;;;;;;;;5052482;28;19920;-83
2022/04/25 05:37:31;;;;;;;;;;;;;;;;;;5052154;28;19995;-83
2022/04/25 05:39:56;;;;;;;;;;;;;;;;;;5051106;28;20443;-83
2022/04/25 05:42:22;;;;;;;;;;;;;;;;;;5051078;28;20002;-83
2022/04/25 05:44:47;;;;;;;;;;;;;;;;;;5051267;28;20012;-84
2022/04/25 05:47:12;;;;;;;;;;;;;;;;;;5050948;28;19917;-83
2022/04/25 05:52:21;;;;;;;;;;;;;;;;;;5052339;28;19966;-83
2022/04/25 05:54:46;;;;;;;;;;;;;;;;;;5050751;28;19908;-84
2022/04/25 05:57:11;;;;;;;;;;;;;;;;;;5050595;28;19928;-83
2022/04/25 05:59:37;;;;;;;;;;;;;;;;;;5050868;28;19952;-83
2022/04/25 06:02:02;;;;;;;;;;;;;;;;;;5052107;28;19912;-83
2022/04/25 06:04:27;;;;;;;;;;;;;;;;;;5057638;28;20359;-84
2022/04/25 06:06:52;;;;;;;;;;;;;;;;;;5069640;28;20219;-84
2022/04/25 06:09:19;;;;;;;;;;;;;;;;;;5069251;28;20391;-83
2022/04/25 06:11:44;;;;;;;;;;;;;;;;;;5071528;28;19923;-83
2022/04/25 06:14:09;;;;;;;;;;;;;;;;;;5067074;28;19913;-84
2022/04/25 06:16:34;;;;;;;;;;;;;;;;;;5069162;28;19919;-83
2022/04/25 06:19:00;;;;;;;;;;;;;;;;;;5069808;28;20011;-83
2022/04/25 06:21:26;;;;;;;;;;;;;;;;;;5066966;28;20054;-83
2022/04/25 06:23:51;;;;;;;;;;;;;;;;;;5075042;28;20354;-83
2022/04/25 06:26:16;;;;;;;;;;;;;;;;;;5076125;28;19920;-83
2022/04/25 06:28:41;;;;;;;;;;;;;;;;;;5071077;28;19928;-83
2022/04/25 06:31:06;;;;;;;;;;;;;;;;;;5054971;28;19915;-83
2022/04/25 06:33:31;;;;;;;;;;;;;;;;;;5059488;28;20104;-83
2022/04/25 06:35:57;;;;;;;;;;;;;;;;;;5074452;28;19958;-83
2022/04/25 06:38:22;;;;;;;;;;;;;;;;;;5074766;28;19959;-83
2022/04/25 06:40:47;;;;;;;;;;;;;;;;;;5074465;28;20346;-83
2022/04/25 06:43:14;;;;;;;;;;;;;;;;;;5070405;28;19913;-83
2022/04/25 06:45:39;;;;;;;;;;;;;;;;;;5062388;28;19916;-83
2022/04/25 06:48:04;;;;;;;;;;;;;;;;;;5074174;28;19970;-83
2022/04/25 06:50:29;;;;;;;;;;;;;;;;;;5073811;28;20008;-83
2022/04/25 06:52:54;;;;;;;;;;;;;;;;;;5073716;28;19913;-82
2022/04/25 06:55:20;;;;;;;;;;;;;;;;;;5073284;28;19912;-82
2022/04/25 06:57:45;;;;;;;;;;;;;;;;;;5067481;28;19962;-83
2022/04/25 07:00:11;;;;;;;;;;;;;;;;;;5061777;28;19952;-82
2022/04/25 07:02:36;;;;;;;;;;;;;;;;;;5072942;28;19912;-82
2022/04/25 07:05:04;;;;;;;;;;;;;;;;;;5071831;28;19923;-82
2022/04/25 07:07:29;;;;;;;;;;;;;;;;;;5074119;28;19942;-83
2022/04/25 07:09:55;;;;;;;;;;;;;;;;;;5072438;28;19919;-82
2022/04/25 07:12:20;;;;;;;;;;;;;;;;;;5072401;28;19915;-82
2022/04/25 07:14:45;;;;;;;;;;;;;;;;;;5072878;28;20379;-82
2022/04/25 07:17:10;;;;;;;;;;;;;;;;;;5073926;28;19947;-82
2022/04/25 07:19:39;;;;;;;;;;;;;;;;;;5072706;28;20759;-83
2022/04/25 07:30:16;;;;;;;;;;;;;;;;;;5072222;28;19978;-82
2022/04/25 07:32:41;;;;;;;;;;;;;;;;;;5073645;28;19920;-82
2022/04/25 07:35:07;;;;;;;;;;;;;;;;;;5071874;28;19908;-82
2022/04/25 07:37:33;;;;;;;;;;;;;;;;;;5072137;28;20352;-82
2022/04/25 07:39:58;;;;;;;;;;;;;;;;;;5072242;28;20360;-82
2022/04/25 07:42:23;;;;;;;;;;;;;;;;;;5072014;28;19919;-83
2022/04/25 07:44:48;;;;;;;;;;;;;;;;;;5073433;28;19913;-82
2022/04/25 07:47:13;;;;;;;;;;;;;;;;;;5071748;28;20360;-82
2022/04/25 07:49:40;;;;;;;;;;;;;;;;;;5070011;28;19944;-86
2022/04/25 07:52:05;;;;;;;;;;;;;;;;;;5069451;28;19920;-83
2022/04/25 07:54:30;;;;;;;;;;;;;;;;;;5053245;28;19909;-84
2022/04/25 07:56:55;;;;;;;;;;;;;;;;;;5053246;28;19909;-83
2022/04/25 07:59:20;;;;;;;;;;;;;;;;;;5053038;28;19912;-83
2022/04/25 08:01:46;;;;;;;;;;;;;;;;;;5053091;28;19992;-83
2022/04/25 08:04:11;;;;;;;;;;;;;;;;;;5069468;28;19917;-84
2022/04/25 08:06:37;;;;;;;;;;;;;;;;;;5060439;28;19966;-84
2022/04/25 08:09:03;;;;;;;;;;;;;;;;;;5069072;28;20020;-83
2022/04/25 08:11:28;;;;;;;;;;;;;;;;;;5052706;28;19916;-84
2022/04/25 08:17:58;;;;;;;;;;;;;;;;;;5073791;28;19923;-83
2022/04/25 08:19:34;;;;;;;;;;;;;;;;;;5073847;28;19908;-83
2022/04/25 08:22:00;;;;;;;;;;;;;;;;;;5072611;28;20007;-83
2022/04/25 08:24:26;;;;;;;;;;;;;;;;;;5072633;28;19913;-82
2022/04/25 08:26:51;;;;;;;;;;;;;;;;;;5072688;28;19912;-83
2022/04/25 08:29:16;;;;;;;;;;;;;;;;;;5072743;28;19973;-82
2022/04/25 08:31:41;;;;;;;;;;;;;;;;;;5068843;28;20331;-82
2022/04/25 08:34:06;;;;;;;;;;;;;;;;;;5063467;28;19924;-82
2022/04/25 08:36:31;;;;;;;;;;;;;;;;;;5072416;28;19908;-82
2022/04/25 08:38:56;;;;;;;;;;;;;;;;;;5073873;28;20439;-82
2022/04/25 08:41:21;;;;;;;;;;;;;;;;;;5071518;28;20410;-83
2022/04/25 08:43:47;;;;;;;;;;;;;;;;;;5072351;28;20384;-83
2022/04/25 08:46:12;;;;;;;;;;;;;;;;;;5072893;28;19951;-82
2022/04/25 08:48:37;;;;;;;;;;;;;;;;;;5072421;28;19948;-83
2022/04/25 08:51:02;;;;;;;;;;;;;;;;;;5072132;28;20275;-83
2022/04/25 08:53:27;;;;;;;;;;;;;;;;;;5072290;28;20280;-83
2022/04/25 08:55:53;;;;;;;;;;;;;;;;;;5071920;28;19912;-83
2022/04/25 08:58:18;;;;;;;;;;;;;;;;;;5072143;28;20383;-83
2022/04/25 09:00:44;;;;;;;;;;;;;;;;;;5071783;28;20002;-83
2022/04/25 09:03:10;;;;;;;;;;;;;;;;;;5072025;28;19959;-83
2022/04/25 09:05:36;;;;;;;;;;;;;;;;;;5073485;28;20429;-83
2022/04/25 09:08:01;;;;;;;;;;;;;;;;;;5068462;28;19913;-82
2022/04/25 09:10:26;;;;;;;;;;;;;;;;;;5052054;28;19920;-82
2022/04/25 09:12:53;;;;;;;;;;;;;;;;;;5052020;28;20015;-83
2022/04/25 09:15:18;;;;;;;;;;;;;;;;;;5065657;28;20007;-83
2022/04/25 09:17:43;;;;;;;;;;;;;;;;;;5072039;28;19951;-83
2022/04/25 09:20:08;;;;;;;;;;;;;;;;;;5073222;28;19909;-82
2022/04/25 09:22:33;;;;;;;;;;;;;;;;;;5071888;28;20019;-83
2022/04/25 09:24:59;;;;;;;;;;;;;;;;;;5072000;28;19995;-83
2022/04/25 09:27:24;;;;;;;;;;;;;;;;;;5068396;28;19913;-83
2022/04/25 09:29:49;;;;;;;;;;;;;;;;;;5051777;28;19909;-83
2022/04/25 09:32:14;;;;;;;;;;;;;;;;;;5058099;28;19920;-83
2022/04/25 09:37:23;;;;;;;;;;;;;;;;;;5076802;28;19919;-83
2022/04/25 09:39:48;;;;;;;;;;;;;;;;;;5087925;28;19916;-83
2022/04/25 09:42:14;;;;;;;;;;;;;;;;;;5091966;28;19908;-83
2022/04/25 09:44:41;;;;;;;;;;;;;;;;;;5092026;28;19912;-83
2022/04/25 09:47:06;;;;;;;;;;;;;;;;;;5067132;28;20420;-84
2022/04/25 09:49:31;;;;;;;;;;;;;;;;;;5061252;28;20392;-84
2022/04/25 09:51:56;;;;;;;;;;;;;;;;;;5052422;28;20323;-83
2022/04/25 09:54:21;;;;;;;;;;;;;;;;;;5056996;28;19909;-83
2022/04/25 09:56:46;;;;;;;;;;;;;;;;;;5074292;28;20417;-84
2022/04/25 09:59:11;;;;;;;;;;;;;;;;;;5071333;28;20021;-83
2022/04/25 10:01:37;;;;;;;;;;;;;;;;;;5074808;28;19998;-83
2022/04/25 10:04:02;;;;;;;;;;;;;;;;;;5072298;28;19917;-83
2022/04/25 10:06:27;;;;;;;;;;;;;;;;;;5074392;28;19995;-83
2022/04/25 10:08:52;;;;;;;;;;;;;;;;;;5075156;28;19908;-84
2022/04/25 10:11:17;;;;;;;;;;;;;;;;;;5071901;28;19913;-83
2022/04/25 10:13:42;;;;;;;;;;;;;;;;;;5054876;28;19909;-84
2022/04/25 10:16:07;;;;;;;;;;;;;;;;;;5054432;28;20426;-84
2022/04/25 10:18:32;;;;;;;;;;;;;;;;;;5054772;28;19916;-84
2022/04/25 10:20:58;;;;;;;;;;;;;;;;;;5054157;28;19916;-84
2022/04/25 10:23:24;;;;;;;;;;;;;;;;;;5064550;28;20003;-84
2022/04/25 10:25:49;;;;;;;;;;;;;;;;;;5073137;28;19916;-84
2022/04/25 10:28:14;;;;;;;;;;;;;;;;;;5074804;28;19923;-84
2022/04/25 10:30:39;;;;;;;;;;;;;;;;;;5071280;28;19919;-84
2022/04/25 10:33:04;;;;;;;;;;;;;;;;;;5078454;28;20012;-84
2022/04/25 10:35:30;;;;;;;;;;;;;;;;;;5074809;28;19908;-82
2022/04/25 10:37:55;;;;;;;;;;;;;;;;;;5074392;28;19999;-83
2022/04/25 10:44:10;;;;;;;;;;;;;;;;;;5075274;28;19920;-82
2022/04/25 10:45:49;;;;;;;;;;;;;;;;;;5075326;28;19962;-82
2022/04/25 10:48:14;;;;;;;;;;;;;;;;;;5070586;28;19917;-83
2022/04/25 10:50:39;;;;;;;;;;;;;;;;;;5055587;28;19938;-83
2022/04/25 10:53:04;;;;;;;;;;;;;;;;;;5071721;28;19912;-83
2022/04/25 10:55:42;;;;;;;;;;;;;;;;;;5074157;28;19908;-82
2022/04/25 10:58:08;;;;;;;;;;;;;;;;;;5070564;28;19924;-82
2022/04/25 11:00:33;;;;;;;;;;;;;;;;;;5055237;28;19920;-82
2022/04/25 11:02:58;;;;;;;;;;;;;;;;;;5067526;28;19926;-83
2022/04/25 11:05:23;;;;;;;;;;;;;;;;;;5073272;28;19917;-83
2022/04/25 11:07:48;;;;;;;;;;;;;;;;;;5074976;28;19916;-83
2022/04/25 11:10:13;;;;;;;;;;;;;;;;;;5075066;28;19908;-83
2022/04/25 11:12:38;;;;;;;;;;;;;;;;;;5070471;28;20276;-83
2022/04/25 11:15:03;;;;;;;;;;;;;;;;;;5069106;28;19917;-82
2022/04/25 11:17:29;;;;;;;;;;;;;;;;;;5072975;28;19916;-83
2022/04/25 11:19:55;;;;;;;;;;;;;;;;;;5072666;28;19912;-82
2022/04/25 11:22:21;;;;;;;;;;;;;;;;;;5074866;28;20116;-82
2022/04/25 11:24:46;;;;;;;;;;;;;;;;;;5070886;28;19956;-82
2022/04/25 11:27:14;;;;;;;;;;;;;;;;;;5082491;28;19916;-82
2022/04/25 11:29:40;;;;;;;;;;;;;;;;;;5071473;28;20249;-83
2022/04/25 11:32:05;;;;;;;;;;;;;;;;;;5056134;28;19920;-82
2022/04/25 11:34:32;;;;;;;;;;;;;;;;;;5072382;28;19975;-81
2022/04/25 11:36:58;;;;;;;;;;;;;;;;;;5070751;28;19913;-82
2022/04/25 11:42:07;;;;;;;;;;;;;;;;;;5074849;28;20264;-82
2022/04/25 11:44:32;;;;;;;;;;;;;;;;;;5067643;28;19913;-81
2022/04/25 11:46:57;;;;;;;;;;;;;;;;;;5069361;28;19916;-81
2022/04/25 11:49:22;;;;;;;;;;;;;;;;;;5072308;28;20306;-81
2022/04/25 11:51:47;;;;;;;;;;;;;;;;;;5072001;28;20423;-81
2022/04/25 11:54:12;;;;;;;;;;;;;;;;;;5072044;28;19917;-81
2022/04/25 11:56:39;;;;;;;;;;;;;;;;;;5067814;28;19913;-81
2022/04/25 11:59:04;;;;;;;;;;;;;;;;;;5052011;28;20279;-82
2022/04/25 12:01:29;;;;;;;;;;;;;;;;;;5051895;28;19916;-82
2022/04/25 12:03:54;;;;;;;;;;;;;;;;;;5051636;28;19913;-82
2022/04/25 12:06:19;;;;;;;;;;;;;;;;;;5052325;28;20360;-82
2022/04/25 12:16:56;;;;;;;;;;;;;;;;;;5072066;28;19919;-82
2022/04/25 12:19:21;;;;;;;;;;;;;;;;;;5072765;28;19912;-82
2022/04/25 12:21:48;;;;;;;;;;;;;;;;;;5072845;28;20352;-82
2022/04/25 12:24:13;;;;;;;;;;;;;;;;;;5072690;28;20406;-82
2022/04/25 12:26:38;;;;;;;;;;;;;;;;;;5067151;28;19912;-82
2022/04/25 12:29:03;;;;;;;;;;;;;;;;;;5071094;28;19912;-82
2022/04/25 12:31:29;;;;;;;;;;;;;;;;;;5068480;28;19913;-82
2022/04/25 12:33:54;;;;;;;;;;;;;;;;;;5052505;28;19908;-82
2022/04/25 12:36:20;;;;;;;;;;;;;;;;;;5053736;28;19943;-82
2022/04/25 12:38:45;;;;;;;;;;;;;;;;;;5068964;28;19924;-82
2022/04/25 12:41:10;;;;;;;;;;;;;;;;;;5071471;28;19960;-82
2022/04/25 12:43:35;;;;;;;;;;;;;;;;;;5072249;28;19919;-81
2022/04/25 12:46:00;;;;;;;;;;;;;;;;;;5070608;28;20322;-82
2022/04/25 12:48:28;;;;;;;;;;;;;;;;;;5065763;28;19916;-82
2022/04/25 12:50:53;;;;;;;;;;;;;;;;;;5070644;28;19956;-82
2022/04/25 12:53:19;;;;;;;;;;;;;;;;;;5064467;28;19943;-82
2022/04/25 12:55:44;;;;;;;;;;;;;;;;;;5071060;28;20419;-82
2022/04/25 12:58:09;;;;;;;;;;;;;;;;;;5065981;28;19943;-82
2022/04/25 13:00:34;;;;;;;;;;;;;;;;;;5062227;28;20322;-82
2022/04/25 13:02:59;;;;;;;;;;;;;;;;;;5059972;28;19940;-81
2022/04/25 13:05:24;;;;;;;;;;;;;;;;;;5069136;28;19959;-82
2022/04/25 13:07:50;;;;;;;;;;;;;;;;;;5075525;28;19912;-82
2022/04/25 13:10:15;;;;;;;;;;;;;;;;;;5071932;28;19912;-81
2022/04/25 13:12:40;;;;;;;;;;;;;;;;;;5073351;28;20361;-81
2022/04/25 13:15:06;;;;;;;;;;;;;;;;;;5072600;28;19912;-82
2022/04/25 13:17:31;;;;;;;;;;;;;;;;;;5071675;28;20003;-82
2022/04/25 13:19:56;;;;;;;;;;;;;;;;;;5071942;28;20437;-82
2022/04/25 13:22:21;;;;;;;;;;;;;;;;;;5072054;28;19916;-82
2022/04/25 13:24:48;;;;;;;;;;;;;;;;;;5073047;28;20367;-82
2022/04/25 13:27:13;;;;;;;;;;;;;;;;;;5074394;28;19913;-82
2022/04/25 13:29:39;;;;;;;;;;;;;;;;;;5075852;28;19908;-82
2022/04/25 13:32:04;;;;;;;;;;;;;;;;;;5074511;28;19912;-83
2022/04/25 13:34:29;;;;;;;;;;;;;;;;;;5076817;28;19909;-82
2022/04/25 13:36:54;;;;;;;;;;;;;;;;;;5076856;28;19995;-82
2022/04/25 13:39:19;;;;;;;;;;;;;;;;;;5072543;28;20356;-83
2022/04/25 13:41:44;;;;;;;;;;;;;;;;;;5055912;28;19921;-82
2022/04/25 13:44:09;;;;;;;;;;;;;;;;;;5057183;28;20384;-82
2022/04/25 13:46:34;;;;;;;;;;;;;;;;;;5057552;28;20007;-82
2022/04/25 13:48:59;;;;;;;;;;;;;;;;;;5076777;28;20287;-82
2022/04/25 13:51:25;;;;;;;;;;;;;;;;;;5075613;28;20439;-82
2022/04/25 13:53:50;;;;;;;;;;;;;;;;;;5076773;28;19908;-82
2022/04/25 13:56:15;;;;;;;;;;;;;;;;;;5077016;28;19911;-82
2022/04/25 13:58:40;;;;;;;;;;;;;;;;;;5071870;28;19913;-82
2022/04/25 14:01:05;;;;;;;;;;;;;;;;;;5055428;28;20272;-82
2022/04/25 14:03:30;;;;;;;;;;;;;;;;;;5055533;28;20003;-82
2022/04/25 14:05:55;;;;;;;;;;;;;;;;;;5055432;28;20277;-82
2022/04/25 14:08:21;;;;;;;;;;;;;;;;;;5074651;28;19986;-82
2022/04/25 14:10:46;;;;;;;;;;;;;;;;;;5075690;28;19958;-83
2022/04/25 14:13:14;;;;;;;;;;;;;;;;;;5076550;28;19908;-83
2022/04/25 14:15:39;;;;;;;;;;;;;;;;;;5076485;28;19909;-83
2022/04/25 14:18:04;;;;;;;;;;;;;;;;;;5071736;28;19935;-83
2022/04/25 14:20:30;;;;;;;;;;;;;;;;;;5062852;28;19912;-83
2022/04/25 14:22:56;;;;;;;;;;;;;;;;;;5072506;28;19920;-83
2022/04/25 14:25:21;;;;;;;;;;;;;;;;;;5072046;28;19917;-82
2022/04/25 14:27:46;;;;;;;;;;;;;;;;;;5075954;28;20007;-83
2022/04/25 14:30:11;;;;;;;;;;;;;;;;;;5074721;28;19913;-83
2022/04/25 14:32:36;;;;;;;;;;;;;;;;;;5074790;28;19916;-82
2022/04/25 14:35:01;;;;;;;;;;;;;;;;;;5074950;28;20027;-82
2022/04/25 14:37:27;;;;;;;;;;;;;;;;;;5074858;28;20330;-82
2022/04/25 14:39:52;;;;;;;;;;;;;;;;;;5073838;28;19923;-82
2022/04/25 14:42:17;;;;;;;;;;;;;;;;;;5074522;28;19908;-82
2022/04/25 14:44:42;;;;;;;;;;;;;;;;;;5074573;28;19916;-82
2022/04/25 14:47:08;;;;;;;;;;;;;;;;;;5074248;28;19920;-83
2022/04/25 14:55:01;;;;;;;;;;;;;;;;;;5075330;28;19932;-83
2022/04/25 14:57:26;;;;;;;;;;;;;;;;;;5074016;28;19908;-82
2022/04/25 14:59:51;;;;;;;;;;;;;;;;;;5070684;28;20375;-82
2022/04/25 15:02:16;;;;;;;;;;;;;;;;;;5073379;28;19912;-83
2022/04/25 15:04:42;;;;;;;;;;;;;;;;;;5073584;28;19912;-83
2022/04/25 15:07:07;;;;;;;;;;;;;;;;;;5070475;28;20265;-83
2022/04/25 15:09:32;;;;;;;;;;;;;;;;;;5071476;28;19916;-83
2022/04/25 15:11:57;;;;;;;;;;;;;;;;;;5073848;28;19912;-83
2022/04/25 15:14:23;;;;;;;;;;;;;;;;;;5070822;28;19913;-83
2022/04/25 15:16:48;;;;;;;;;;;;;;;;;;5065975;28;19919;-83
2022/04/25 15:19:13;;;;;;;;;;;;;;;;;;5074765;28;19913;-83
2022/04/25 15:21:38;;;;;;;;;;;;;;;;;;5075016;28;19915;-83
2022/04/25 15:24:03;;;;;;;;;;;;;;;;;;5069098;28;19923;-83
2022/04/25 15:26:28;;;;;;;;;;;;;;;;;;5071605;28;19919;-83
2022/04/25 15:28:54;;;;;;;;;;;;;;;;;;5073293;28;19961;-84
2022/04/25 15:31:19;;;;;;;;;;;;;;;;;;5070622;28;20362;-83
2022/04/25 15:33:44;;;;;;;;;;;;;;;;;;5074416;28;19912;-83
2022/04/25 15:36:09;;;;;;;;;;;;;;;;;;5073657;28;19999;-82
2022/04/25 15:38:34;;;;;;;;;;;;;;;;;;5072591;28;20026;-83
2022/04/25 15:41:00;;;;;;;;;;;;;;;;;;5073240;28;19961;-83
2022/04/25 15:43:25;;;;;;;;;;;;;;;;;;5069442;28;19920;-83
2022/04/25 15:45:50;;;;;;;;;;;;;;;;;;5064017;28;19963;-83
2022/04/25 15:48:15;;;;;;;;;;;;;;;;;;5073071;28;20005;-83
2022/04/25 15:50:40;;;;;;;;;;;;;;;;;;5069375;28;20054;-83
2022/04/25 15:53:05;;;;;;;;;;;;;;;;;;5068641;28;19920;-83
2022/04/25 15:58:14;;;;;;;;;;;;;;;;;;5073579;28;19947;-83
2022/04/25 16:00:40;;;;;;;;;;;;;;;;;;5072931;28;19909;-83
2022/04/25 16:03:05;;;;;;;;;;;;;;;;;;5073146;28;19916;-84
2022/04/25 16:05:30;;;;;;;;;;;;;;;;;;5069237;28;19917;-82
2022/04/25 16:07:55;;;;;;;;;;;;;;;;;;5070718;28;19908;-83
2022/04/25 16:10:21;;;;;;;;;;;;;;;;;;5073660;28;19914;-83
2022/04/25 16:12:46;;;;;;;;;;;;;;;;;;5072811;28;20491;-83
2022/04/25 16:15:11;;;;;;;;;;;;;;;;;;5069208;28;19913;-83
2022/04/25 16:17:38;;;;;;;;;;;;;;;;;;5066794;28;19920;-83
2022/04/25 16:20:03;;;;;;;;;;;;;;;;;;5073869;28;19962;-83
2022/04/25 16:22:28;;;;;;;;;;;;;;;;;;5073956;28;20295;-83
2022/04/25 16:24:54;;;;;;;;;;;;;;;;;;5068236;28;19924;-83
2022/04/25 16:27:19;;;;;;;;;;;;;;;;;;5071995;28;19920;-83
2022/04/25 16:29:44;;;;;;;;;;;;;;;;;;5069085;28;19990;-83
2022/04/25 16:32:09;;;;;;;;;;;;;;;;;;5062368;28;19912;-82
2022/04/25 16:34:35;;;;;;;;;;;;;;;;;;5071504;28;19912;-84
2022/04/25 16:37:02;;;;;;;;;;;;;;;;;;5071576;28;20562;-83
2022/04/25 16:39:30;;;;;;;;;;;;;;;;;;5072318;28;19908;-83
2022/04/25 16:41:55;;;;;;;;;;;;;;;;;;5068745;28;19975;-83
2022/04/25 16:44:21;;;;;;;;;;;;;;;;;;5069929;28;20497;-83
2022/04/25 16:46:48;;;;;;;;;;;;;;;;;;5070645;28;20023;-83
2022/04/25 16:49:13;;;;;;;;;;;;;;;;;;5068593;28;19959;-83
2022/04/25 16:51:39;;;;;;;;;;;;;;;;;;5060010;28;19970;-83
2022/04/25 16:54:04;;;;;;;;;;;;;;;;;;5072040;28;19955;-83
2022/04/25 16:56:29;;;;;;;;;;;;;;;;;;5073259;28;19915;-83
2022/04/25 16:58:54;;;;;;;;;;;;;;;;;;5072145;28;19915;-83
2022/04/25 17:01:19;;;;;;;;;;;;;;;;;;5070735;28;20340;-83
2022/04/25 17:03:44;;;;;;;;;;;;;;;;;;5070595;28;19916;-83
2022/04/25 17:06:10;;;;;;;;;;;;;;;;;;5071693;28;19912;-83
2022/04/25 17:08:36;;;;;;;;;;;;;;;;;;5072020;28;19954;-83
2022/04/25 17:11:01;;;;;;;;;;;;;;;;;;5071962;28;20318;-83
2022/04/25 17:13:26;;;;;;;;;;;;;;;;;;5072209;28;20356;-84
2022/04/25 17:15:52;;;;;;;;;;;;;;;;;;5073024;28;19921;-83
2022/04/25 17:18:17;;;;;;;;;;;;;;;;;;5071652;28;19916;-83
2022/04/25 17:20:42;;;;;;;;;;;;;;;;;;5071986;28;19959;-82